sensor_id;sensor_type;location;lat;lon;timestamp;pressure;altitude;pressure_sealevel;temperature;humidity
47104;BME280;32853;52.164;5.400;2022-09-09T00:05:33;100689.06;;;16.39;100.00
47104;BME280;32853;52.164;5.400;2022-09-09T00:10:09;100677.13;;;16.34;100.00
47104;BME280;32853;52.164;5.400;2022-09-09T00:15:34;100607.34;;;15.85;100.00
47104;BME280;32853;52.164;5.400;2022-09-09T00:18:22;100672.09;;;16.16;100.00
47104;BME280;32853;52.164;5.400;2022-09-09T00:21:13;100660.91;;;16.13;100.00
47104;BME280;32853;52.164;5.400;2022-09-09T00:23:47;100623.22;;;15.98;100.00
47104;BME280;32853;52.164;5.400;2022-09-09T00:35:04;100653.13;;;16.11;100.00
47104;BME280;32853;52.164;5.400;2022-09-09T00:37:41;100668.72;;;16.14;100.00
47104;BME280;32853;52.164;5.400;2022-09-09T00:43:03;100670.31;;;16.17;100.00
47104;BME280;32853;52.164;5.400;2022-09-09T00:58:01;100648.75;;;15.97;100.00
47104;BME280;32853;52.164;5.400;2022-09-09T01:00:30;100666.25;;;15.98;100.00
47104;BME280;32853;52.164;5.400;2022-09-09T01:03:25;100670.59;;;16.00;100.00
47104;BME280;32853;52.164;5.400;2022-09-09T01:06:12;100667.09;;;15.99;100.00
47104;BME280;32853;52.164;5.400;2022-09-09T01:11:24;100682.56;;;15.91;100.00
47104;BME280;32853;52.164;5.400;2022-09-09T01:14:00;100687.09;;;15.89;100.00
47104;BME280;32853;52.164;5.400;2022-09-09T01:16:29;100676.56;;;15.89;100.00
47104;BME280;32853;52.164;5.400;2022-09-09T01:18:59;100610.53;;;15.49;100.00
47104;BME280;32853;52.164;5.400;2022-09-09T01:21:45;100536.66;;;15.09;100.00
47104;BME280;32853;52.164;5.400;2022-09-09T01:24:38;100556.22;;;15.20;100.00
47104;BME280;32853;52.164;5.400;2022-09-09T01:27:07;100638.75;;;15.76;100.00
47104;BME280;32853;52.164;5.400;2022-09-09T01:29:41;100660.94;;;15.86;100.00
47104;BME280;32853;52.164;5.400;2022-09-09T01:37:56;100639.88;;;15.72;100.00
47104;BME280;32853;52.164;5.400;2022-09-09T01:40:23;100651.16;;;15.74;100.00
47104;BME280;32853;52.164;5.400;2022-09-09T01:42:48;100658.31;;;15.72;100.00
47104;BME280;32853;52.164;5.400;2022-09-09T01:45:19;100652.50;;;15.66;100.00
47104;BME280;32853;52.164;5.400;2022-09-09T01:47:45;100613.47;;;15.45;100.00
47104;BME280;32853;52.164;5.400;2022-09-09T01:50:13;100632.44;;;15.50;100.00
47104;BME280;32853;52.164;5.400;2022-09-09T01:52:42;100662.59;;;15.60;100.00
47104;BME280;32853;52.164;5.400;2022-09-09T01:55:09;100663.81;;;15.54;100.00
47104;BME280;32853;52.164;5.400;2022-09-09T01:57:45;100529.44;;;14.85;100.00
47104;BME280;32853;52.164;5.400;2022-09-09T02:00:15;100520.25;;;14.77;100.00
47104;BME280;32853;52.164;5.400;2022-09-09T02:05:41;100644.88;;;15.62;100.00
47104;BME280;32853;52.164;5.400;2022-09-09T02:08:15;100597.13;;;15.25;100.00
47104;BME280;32853;52.164;5.400;2022-09-09T02:11:01;100643.28;;;15.45;100.00
47104;BME280;32853;52.164;5.400;2022-09-09T02:13:32;100620.78;;;15.39;100.00
47104;BME280;32853;52.164;5.400;2022-09-09T02:16:07;100616.38;;;15.40;100.00
47104;BME280;32853;52.164;5.400;2022-09-09T02:18:44;100626.22;;;15.51;100.00
47104;BME280;32853;52.164;5.400;2022-09-09T02:21:13;100551.91;;;15.04;100.00
47104;BME280;32853;52.164;5.400;2022-09-09T02:23:42;100568.38;;;15.08;100.00
47104;BME280;32853;52.164;5.400;2022-09-09T02:26:16;100631.16;;;15.43;100.00
47104;BME280;32853;52.164;5.400;2022-09-09T02:28:46;100575.41;;;15.07;100.00
47104;BME280;32853;52.164;5.400;2022-09-09T02:31:13;100621.31;;;15.32;100.00
47104;BME280;32853;52.164;5.400;2022-09-09T02:33:45;100621.41;;;15.30;100.00
47104;BME280;32853;52.164;5.400;2022-09-09T02:36:12;100584.06;;;15.09;100.00
47104;BME280;32853;52.164;5.400;2022-09-09T02:38:45;100610.38;;;15.24;100.00
47104;BME280;32853;52.164;5.400;2022-09-09T02:41:11;100636.25;;;15.46;100.00
47104;BME280;32853;52.164;5.400;2022-09-09T02:43:45;100629.06;;;15.48;100.00
47104;BME280;32853;52.164;5.400;2022-09-09T02:55:39;100630.91;;;15.33;100.00
47104;BME280;32853;52.164;5.400;2022-09-09T02:58:07;100505.69;;;14.58;100.00
47104;BME280;32853;52.164;5.400;2022-09-09T03:00:35;100620.28;;;15.20;100.00
47104;BME280;32853;52.164;5.400;2022-09-09T03:03:06;100477.41;;;14.47;100.00
47104;BME280;32853;52.164;5.400;2022-09-09T03:05:33;100540.16;;;14.81;100.00
47104;BME280;32853;52.164;5.400;2022-09-09T03:07:59;100622.16;;;15.32;100.00
47104;BME280;32853;52.164;5.400;2022-09-09T03:10:24;100603.34;;;15.24;100.00
47104;BME280;32853;52.164;5.400;2022-09-09T03:12:49;100578.13;;;15.06;100.00
47104;BME280;32853;52.164;5.400;2022-09-09T03:15:15;100615.75;;;15.22;100.00
47104;BME280;32853;52.164;5.400;2022-09-09T03:17:44;100625.56;;;15.20;100.00
47104;BME280;32853;52.164;5.400;2022-09-09T03:20:10;100549.41;;;14.74;100.00
47104;BME280;32853;52.164;5.400;2022-09-09T03:22:35;100555.31;;;14.78;100.00
47104;BME280;32853;52.164;5.400;2022-09-09T03:25:01;100582.38;;;14.94;100.00
47104;BME280;32853;52.164;5.400;2022-09-09T03:27:28;100625.28;;;15.10;100.00
47104;BME280;32853;52.164;5.400;2022-09-09T03:29:53;100581.63;;;14.92;100.00
47104;BME280;32853;52.164;5.400;2022-09-09T03:32:19;100610.13;;;15.00;100.00
47104;BME280;32853;52.164;5.400;2022-09-09T03:34:47;100607.50;;;15.00;100.00
47104;BME280;32853;52.164;5.400;2022-09-09T03:37:15;100427.28;;;13.91;100.00
47104;BME280;32853;52.164;5.400;2022-09-09T03:39:40;100574.03;;;14.88;100.00
47104;BME280;32853;52.164;5.400;2022-09-09T03:42:05;100513.09;;;14.51;100.00
47104;BME280;32853;52.164;5.400;2022-09-09T03:44:31;100625.44;;;15.07;100.00
47104;BME280;32853;52.164;5.400;2022-09-09T03:46:56;100623.19;;;15.16;100.00
47104;BME280;32853;52.164;5.400;2022-09-09T03:49:22;100591.34;;;14.77;100.00
47104;BME280;32853;52.164;5.400;2022-09-09T03:51:50;100618.59;;;15.19;100.00
47104;BME280;32853;52.164;5.400;2022-09-09T03:54:15;100616.13;;;15.16;100.00
47104;BME280;32853;52.164;5.400;2022-09-09T03:56:41;100573.44;;;14.82;100.00
47104;BME280;32853;52.164;5.400;2022-09-09T03:59:06;100621.06;;;15.08;100.00
47104;BME280;32853;52.164;5.400;2022-09-09T04:01:34;100615.59;;;15.11;100.00
47104;BME280;32853;52.164;5.400;2022-09-09T04:04:01;100607.88;;;15.08;100.00
47104;BME280;32853;52.164;5.400;2022-09-09T04:06:33;100564.16;;;14.77;100.00
47104;BME280;32853;52.164;5.400;2022-09-09T04:08:59;100491.00;;;14.25;100.00
47104;BME280;32853;52.164;5.400;2022-09-09T04:11:24;100540.94;;;14.55;100.00
47104;BME280;32853;52.164;5.400;2022-09-09T04:13:55;100543.00;;;14.50;100.00
47104;BME280;32853;52.164;5.400;2022-09-09T04:16:24;100569.13;;;14.67;100.00
47104;BME280;32853;52.164;5.400;2022-09-09T04:18:53;100494.66;;;14.22;100.00
47104;BME280;32853;52.164;5.400;2022-09-09T04:21:19;100583.44;;;14.77;100.00
47104;BME280;32853;52.164;5.400;2022-09-09T04:23:54;100535.19;;;14.48;100.00
47104;BME280;32853;52.164;5.400;2022-09-09T04:26:30;100565.84;;;14.78;100.00
47104;BME280;32853;52.164;5.400;2022-09-09T04:29:22;100604.50;;;14.92;100.00
47104;BME280;32853;52.164;5.400;2022-09-09T04:31:47;100600.91;;;14.93;100.00
47104;BME280;32853;52.164;5.400;2022-09-09T04:34:38;100598.47;;;14.90;100.00
47104;BME280;32853;52.164;5.400;2022-09-09T04:37:03;100600.72;;;14.96;100.00
47104;BME280;32853;52.164;5.400;2022-09-09T04:39:29;100560.94;;;14.72;100.00
47104;BME280;32853;52.164;5.400;2022-09-09T04:41:57;100604.03;;;14.99;100.00
47104;BME280;32853;52.164;5.400;2022-09-09T04:44:32;100533.44;;;14.63;100.00
47104;BME280;32853;52.164;5.400;2022-09-09T04:46:58;100604.19;;;14.96;100.00
47104;BME280;32853;52.164;5.400;2022-09-09T04:49:23;100602.22;;;15.00;100.00
47104;BME280;32853;52.164;5.400;2022-09-09T04:51:49;100466.09;;;14.16;100.00
47104;BME280;32853;52.164;5.400;2022-09-09T04:54:14;100541.88;;;14.54;100.00
47104;BME280;32853;52.164;5.400;2022-09-09T04:56:54;100584.44;;;15.03;100.00
47104;BME280;32853;52.164;5.400;2022-09-09T04:59:21;100516.75;;;14.63;100.00
47104;BME280;32853;52.164;5.400;2022-09-09T05:01:48;100527.13;;;14.66;100.00
47104;BME280;32853;52.164;5.400;2022-09-09T05:04:16;100562.66;;;14.87;100.00
47104;BME280;32853;52.164;5.400;2022-09-09T05:06:41;100436.59;;;13.97;100.00
47104;BME280;32853;52.164;5.400;2022-09-09T05:09:07;100523.16;;;14.59;100.00
47104;BME280;32853;52.164;5.400;2022-09-09T05:11:34;100593.66;;;14.96;100.00
47104;BME280;32853;52.164;5.400;2022-09-09T05:14:02;100523.38;;;14.56;100.00
47104;BME280;32853;52.164;5.400;2022-09-09T05:16:28;100599.59;;;15.00;100.00
47104;BME280;32853;52.164;5.400;2022-09-09T05:18:55;100470.53;;;14.30;100.00
47104;BME280;32853;52.164;5.400;2022-09-09T05:21:29;100481.91;;;14.31;100.00
47104;BME280;32853;52.164;5.400;2022-09-09T05:23:56;100587.09;;;15.03;100.00
47104;BME280;32853;52.164;5.400;2022-09-09T05:26:22;100580.75;;;15.06;100.00
47104;BME280;32853;52.164;5.400;2022-09-09T05:28:48;100503.91;;;14.58;100.00
47104;BME280;32853;52.164;5.400;2022-09-09T05:31:16;100589.91;;;15.00;100.00
47104;BME280;32853;52.164;5.400;2022-09-09T05:33:46;100567.81;;;15.03;100.00
47104;BME280;32853;52.164;5.400;2022-09-09T05:36:19;100384.38;;;13.91;100.00
47104;BME280;32853;52.164;5.400;2022-09-09T05:38:45;100434.16;;;14.08;100.00
47104;BME280;32853;52.164;5.400;2022-09-09T05:41:11;100527.97;;;14.66;100.00
47104;BME280;32853;52.164;5.400;2022-09-09T05:43:46;100410.13;;;13.86;100.00
47104;BME280;32853;52.164;5.400;2022-09-09T05:46:23;100488.22;;;14.57;100.00
47104;BME280;32853;52.164;5.400;2022-09-09T05:48:53;100582.47;;;15.07;100.00
47104;BME280;32853;52.164;5.400;2022-09-09T05:51:26;100484.44;;;14.46;100.00
47104;BME280;32853;52.164;5.400;2022-09-09T05:53:53;100577.97;;;15.09;100.00
47104;BME280;32853;52.164;5.400;2022-09-09T05:56:21;100579.28;;;15.02;100.00
47104;BME280;32853;52.164;5.400;2022-09-09T05:58:49;100557.66;;;14.97;100.00
47104;BME280;32853;52.164;5.400;2022-09-09T06:01:17;100546.38;;;14.80;100.00
47104;BME280;32853;52.164;5.400;2022-09-09T06:03:44;100577.97;;;14.95;100.00
47104;BME280;32853;52.164;5.400;2022-09-09T06:06:14;100586.50;;;15.13;100.00
47104;BME280;32853;52.164;5.400;2022-09-09T06:08:41;100591.03;;;15.10;100.00
47104;BME280;32853;52.164;5.400;2022-09-09T06:11:29;100580.28;;;15.14;100.00
47104;BME280;32853;52.164;5.400;2022-09-09T06:13:58;100589.03;;;15.14;100.00
47104;BME280;32853;52.164;5.400;2022-09-09T06:16:26;100457.28;;;14.32;100.00
47104;BME280;32853;52.164;5.400;2022-09-09T06:18:53;100557.38;;;15.01;100.00
47104;BME280;32853;52.164;5.400;2022-09-09T06:21:30;100586.22;;;15.31;100.00
47104;BME280;32853;52.164;5.400;2022-09-09T06:23:57;100577.16;;;15.35;100.00
47104;BME280;32853;52.164;5.400;2022-09-09T06:26:27;100515.91;;;14.91;100.00
47104;BME280;32853;52.164;5.400;2022-09-09T06:28:55;100392.28;;;14.19;100.00
47104;BME280;32853;52.164;5.400;2022-09-09T06:31:23;100523.59;;;15.08;100.00
47104;BME280;32853;52.164;5.400;2022-09-09T06:33:51;100548.38;;;15.32;100.00
47104;BME280;32853;52.164;5.400;2022-09-09T06:36:36;100555.88;;;15.38;100.00
47104;BME280;32853;52.164;5.400;2022-09-09T06:39:02;100575.50;;;15.61;100.00
47104;BME280;32853;52.164;5.400;2022-09-09T06:41:31;100569.13;;;15.78;100.00
47104;BME280;32853;52.164;5.400;2022-09-09T06:43:56;100531.63;;;15.60;100.00
47104;BME280;32853;52.164;5.400;2022-09-09T06:46:29;100523.91;;;15.57;100.00
47104;BME280;32853;52.164;5.400;2022-09-09T06:48:58;100585.75;;;16.06;100.00
47104;BME280;32853;52.164;5.400;2022-09-09T06:51:27;100593.28;;;16.12;100.00
47104;BME280;32853;52.164;5.400;2022-09-09T06:53:55;100535.50;;;15.94;100.00
47104;BME280;32853;52.164;5.400;2022-09-09T06:56:26;100573.47;;;16.19;100.00
47104;BME280;32853;52.164;5.400;2022-09-09T06:58:54;100531.28;;;15.92;100.00
47104;BME280;32853;52.164;5.400;2022-09-09T07:01:25;100546.41;;;16.03;100.00
47104;BME280;32853;52.164;5.400;2022-09-09T07:03:52;100568.94;;;16.34;100.00
47104;BME280;32853;52.164;5.400;2022-09-09T07:06:27;100537.25;;;16.08;100.00
47104;BME280;32853;52.164;5.400;2022-09-09T07:08:55;100496.28;;;16.03;100.00
47104;BME280;32853;52.164;5.400;2022-09-09T07:11:32;100576.56;;;16.64;100.00
47104;BME280;32853;52.164;5.400;2022-09-09T07:13:59;100513.28;;;16.24;100.00
47104;BME280;32853;52.164;5.400;2022-09-09T07:16:25;100583.75;;;16.74;100.00
47104;BME280;32853;52.164;5.400;2022-09-09T07:18:53;100578.56;;;16.73;100.00
47104;BME280;32853;52.164;5.400;2022-09-09T07:21:23;100508.97;;;16.36;100.00
47104;BME280;32853;52.164;5.400;2022-09-09T07:23:50;100416.44;;;15.75;100.00
47104;BME280;32853;52.164;5.400;2022-09-09T07:26:29;100458.63;;;16.01;100.00
47104;BME280;32853;52.164;5.400;2022-09-09T07:28:55;100566.41;;;16.58;100.00
47104;BME280;32853;52.164;5.400;2022-09-09T07:31:29;100532.72;;;16.23;100.00
47104;BME280;32853;52.164;5.400;2022-09-09T07:33:56;100567.47;;;16.55;100.00
47104;BME280;32853;52.164;5.400;2022-09-09T07:36:31;100533.78;;;16.46;100.00
47104;BME280;32853;52.164;5.400;2022-09-09T07:39:12;100547.41;;;16.52;100.00
47104;BME280;32853;52.164;5.400;2022-09-09T07:41:46;100482.16;;;16.16;100.00
47104;BME280;32853;52.164;5.400;2022-09-09T07:44:24;100543.91;;;16.52;100.00
47104;BME280;32853;52.164;5.400;2022-09-09T07:46:50;100515.19;;;16.47;100.00
47104;BME280;32853;52.164;5.400;2022-09-09T07:49:17;100523.94;;;16.61;100.00
47104;BME280;32853;52.164;5.400;2022-09-09T07:51:45;100386.97;;;15.68;100.00
47104;BME280;32853;52.164;5.400;2022-09-09T07:54:13;100586.56;;;17.09;100.00
47104;BME280;32853;52.164;5.400;2022-09-09T07:56:40;100587.78;;;17.17;100.00
47104;BME280;32853;52.164;5.400;2022-09-09T07:59:07;100584.63;;;17.24;100.00
47104;BME280;32853;52.164;5.400;2022-09-09T08:01:36;100581.19;;;17.35;100.00
47104;BME280;32853;52.164;5.400;2022-09-09T08:04:05;100563.81;;;17.20;100.00
47104;BME280;32853;52.164;5.400;2022-09-09T08:06:35;100563.03;;;17.30;100.00
47104;BME280;32853;52.164;5.400;2022-09-09T08:09:01;100598.94;;;17.46;100.00
47104;BME280;32853;52.164;5.400;2022-09-09T08:11:28;100537.16;;;17.23;100.00
47104;BME280;32853;52.164;5.400;2022-09-09T08:13:54;100564.25;;;17.37;100.00
47104;BME280;32853;52.164;5.400;2022-09-09T08:16:25;100401.59;;;16.36;100.00
47104;BME280;32853;52.164;5.400;2022-09-09T08:18:52;100575.81;;;17.60;100.00
47104;BME280;32853;52.164;5.400;2022-09-09T08:21:27;100568.78;;;17.48;100.00
47104;BME280;32853;52.164;5.400;2022-09-09T08:23:54;100490.41;;;16.99;100.00
47104;BME280;32853;52.164;5.400;2022-09-09T08:26:40;100467.00;;;16.82;100.00
47104;BME280;32853;52.164;5.400;2022-09-09T08:29:18;100575.56;;;17.39;100.00
47104;BME280;32853;52.164;5.400;2022-09-09T08:31:49;100606.13;;;17.43;100.00
47104;BME280;32853;52.164;5.400;2022-09-09T08:34:18;100531.31;;;16.94;100.00
47104;BME280;32853;52.164;5.400;2022-09-09T08:36:48;100604.63;;;17.52;100.00
47104;BME280;32853;52.164;5.400;2022-09-09T08:39:15;100574.16;;;17.23;100.00
47104;BME280;32853;52.164;5.400;2022-09-09T08:42:13;100613.09;;;17.45;100.00
47104;BME280;32853;52.164;5.400;2022-09-09T08:47:34;100553.63;;;17.26;100.00
47104;BME280;32853;52.164;5.400;2022-09-09T08:50:26;100610.91;;;17.62;100.00
47104;BME280;32853;52.164;5.400;2022-09-09T08:53:14;100556.06;;;17.29;100.00
47104;BME280;32853;52.164;5.400;2022-09-09T08:55:52;100547.28;;;17.29;100.00
47104;BME280;32853;52.164;5.400;2022-09-09T08:58:26;100615.56;;;17.71;100.00
47104;BME280;32853;52.164;5.400;2022-09-09T09:07:07;100549.06;;;17.41;100.00
47104;BME280;32853;52.164;5.400;2022-09-09T09:09:57;100621.69;;;17.85;100.00
47104;BME280;32853;52.164;5.400;2022-09-09T09:12:30;100613.69;;;17.74;100.00
47104;BME280;32853;52.164;5.400;2022-09-09T09:14:59;100625.38;;;17.82;100.00
47104;BME280;32853;52.164;5.400;2022-09-09T09:17:26;100593.03;;;17.66;100.00
47104;BME280;32853;52.164;5.400;2022-09-09T09:19:53;100621.28;;;17.78;100.00
47104;BME280;32853;52.164;5.400;2022-09-09T09:22:30;100597.81;;;17.61;100.00
47104;BME280;32853;52.164;5.400;2022-09-09T09:25:23;100591.56;;;17.75;100.00
47104;BME280;32853;52.164;5.400;2022-09-09T09:28:01;100622.06;;;17.91;100.00
47104;BME280;32853;52.164;5.400;2022-09-09T09:31:03;100607.84;;;17.68;100.00
47104;BME280;32853;52.164;5.400;2022-09-09T09:33:50;100626.22;;;17.83;100.00
47104;BME280;32853;52.164;5.400;2022-09-09T09:36:19;100624.03;;;17.77;100.00
47104;BME280;32853;52.164;5.400;2022-09-09T09:39:01;100631.06;;;17.89;100.00
47104;BME280;32853;52.164;5.400;2022-09-09T09:41:42;100560.47;;;17.41;100.00
47104;BME280;32853;52.164;5.400;2022-09-09T09:44:31;100612.94;;;17.71;100.00
47104;BME280;32853;52.164;5.400;2022-09-09T09:47:22;100630.47;;;17.85;100.00
47104;BME280;32853;52.164;5.400;2022-09-09T09:49:56;100626.78;;;17.75;100.00
47104;BME280;32853;52.164;5.400;2022-09-09T09:52:25;100504.75;;;17.08;100.00
47104;BME280;32853;52.164;5.400;2022-09-09T09:54:53;100630.94;;;17.90;100.00
47104;BME280;32853;52.164;5.400;2022-09-09T09:57:24;100556.28;;;17.50;100.00
47104;BME280;32853;52.164;5.400;2022-09-09T10:00:21;100618.84;;;17.99;100.00
47104;BME280;32853;52.164;5.400;2022-09-09T10:02:48;100562.09;;;17.55;100.00
47104;BME280;32853;52.164;5.400;2022-09-09T10:05:18;100614.94;;;17.92;100.00
47104;BME280;32853;52.164;5.400;2022-09-09T10:07:45;100573.94;;;17.50;100.00
47104;BME280;32853;52.164;5.400;2022-09-09T10:10:20;100635.50;;;17.88;100.00
47104;BME280;32853;52.164;5.400;2022-09-09T10:13:03;100608.81;;;17.91;100.00
47104;BME280;32853;52.164;5.400;2022-09-09T10:21:03;100567.88;;;17.84;100.00
47104;BME280;32853;52.164;5.400;2022-09-09T10:26:35;100604.13;;;17.95;100.00
47104;BME280;32853;52.164;5.400;2022-09-09T10:43:00;100640.06;;;18.10;100.00
47104;BME280;32853;52.164;5.400;2022-09-09T10:57:36;100610.91;;;17.75;100.00
47104;BME280;32853;52.164;5.400;2022-09-09T11:00:40;100630.78;;;17.81;100.00
47104;BME280;32853;52.164;5.400;2022-09-09T11:03:20;100518.75;;;16.97;100.00
47104;BME280;32853;52.164;5.400;2022-09-09T11:05:55;100630.19;;;17.64;100.00
47104;BME280;32853;52.164;5.400;2022-09-09T11:08:28;100565.09;;;17.38;100.00
47104;BME280;32853;52.164;5.400;2022-09-09T11:13:53;100621.94;;;17.93;100.00
47104;BME280;32853;52.164;5.400;2022-09-09T11:16:40;100616.19;;;17.99;100.00
47104;BME280;32853;52.164;5.400;2022-09-09T11:21:55;100522.66;;;17.76;100.00
47104;BME280;32853;52.164;5.400;2022-09-09T11:24:39;100541.59;;;17.94;100.00
47104;BME280;32853;52.164;5.400;2022-09-09T11:27:19;100547.72;;;17.94;100.00
47104;BME280;32853;52.164;5.400;2022-09-09T11:30:05;100607.66;;;18.31;100.00
47104;BME280;32853;52.164;5.400;2022-09-09T11:38:49;100607.81;;;18.40;100.00
47104;BME280;32853;52.164;5.400;2022-09-09T11:41:17;100535.63;;;18.03;100.00
47104;BME280;32853;52.164;5.400;2022-09-09T11:43:48;100545.63;;;18.11;100.00
47104;BME280;32853;52.164;5.400;2022-09-09T11:46:21;100493.22;;;17.81;100.00
47104;BME280;32853;52.164;5.400;2022-09-09T11:49:00;100538.97;;;18.05;100.00
47104;BME280;32853;52.164;5.400;2022-09-09T11:51:28;100524.19;;;18.03;100.00
47104;BME280;32853;52.164;5.400;2022-09-09T11:54:04;100404.59;;;17.40;100.00
47104;BME280;32853;52.164;5.400;2022-09-09T11:56:48;100599.91;;;18.63;100.00
47104;BME280;32853;52.164;5.400;2022-09-09T11:59:32;100606.66;;;18.67;100.00
47104;BME280;32853;52.164;5.400;2022-09-09T12:01:59;100608.91;;;18.60;100.00
47104;BME280;32853;52.164;5.400;2022-09-09T12:04:33;100611.66;;;18.47;100.00
47104;BME280;32853;52.164;5.400;2022-09-09T12:07:21;100599.00;;;18.51;100.00
47104;BME280;32853;52.164;5.400;2022-09-09T12:09:57;100612.84;;;18.43;100.00
47104;BME280;32853;52.164;5.400;2022-09-09T12:12:28;100596.97;;;18.43;100.00
47104;BME280;32853;52.164;5.400;2022-09-09T12:17:42;100554.84;;;18.40;100.00
47104;BME280;32853;52.164;5.400;2022-09-09T12:31:53;100596.94;;;18.32;100.00
47104;BME280;32853;52.164;5.400;2022-09-09T12:36:57;100493.91;;;17.48;100.00
47104;BME280;32853;52.164;5.400;2022-09-09T12:39:37;100607.78;;;18.05;100.00
47104;BME280;32853;52.164;5.400;2022-09-09T12:42:04;100600.16;;;18.24;100.00
47104;BME280;32853;52.164;5.400;2022-09-09T12:44:39;100492.38;;;17.56;100.00
47104;BME280;32853;52.164;5.400;2022-09-09T12:47:15;100597.41;;;18.37;100.00
47104;BME280;32853;52.164;5.400;2022-09-09T12:49:41;100521.91;;;17.98;100.00
47104;BME280;32853;52.164;5.400;2022-09-09T12:52:32;100522.63;;;18.00;100.00
47104;BME280;32853;52.164;5.400;2022-09-09T12:55:01;100496.00;;;17.90;100.00
47104;BME280;32853;52.164;5.400;2022-09-09T12:57:33;100485.78;;;17.86;100.00
47104;BME280;32853;52.164;5.400;2022-09-09T13:00:21;100581.09;;;18.54;100.00
47104;BME280;32853;52.164;5.400;2022-09-09T13:02:52;100589.34;;;18.74;100.00
47104;BME280;32853;52.164;5.400;2022-09-09T13:05:21;100587.75;;;18.71;100.00
47104;BME280;32853;52.164;5.400;2022-09-09T13:07:47;100575.47;;;18.70;100.00
47104;BME280;32853;52.164;5.400;2022-09-09T13:10:14;100589.34;;;18.96;100.00
47104;BME280;32853;52.164;5.400;2022-09-09T13:12:41;100497.78;;;18.47;100.00
47104;BME280;32853;52.164;5.400;2022-09-09T13:15:23;100422.31;;;17.97;100.00
47104;BME280;32853;52.164;5.400;2022-09-09T13:17:57;100500.09;;;18.52;100.00
47104;BME280;32853;52.164;5.400;2022-09-09T13:20:25;100528.03;;;18.67;100.00
47104;BME280;32853;52.164;5.400;2022-09-09T13:22:51;100565.47;;;19.19;100.00
47104;BME280;32853;52.164;5.400;2022-09-09T13:25:29;100572.34;;;19.21;100.00
47104;BME280;32853;52.164;5.400;2022-09-09T13:28:03;100567.78;;;19.01;100.00
47104;BME280;32853;52.164;5.400;2022-09-09T13:30:31;100594.84;;;19.15;100.00
47104;BME280;32853;52.164;5.400;2022-09-09T13:36:26;100476.34;;;18.39;100.00
47104;BME280;32853;52.164;5.400;2022-09-09T13:38:55;100412.69;;;17.96;100.00
47104;BME280;32853;52.164;5.400;2022-09-09T13:41:25;100522.34;;;18.61;100.00
47104;BME280;32853;52.164;5.400;2022-09-09T13:43:51;100595.97;;;18.91;100.00
47104;BME280;32853;52.164;5.400;2022-09-09T13:46:40;100584.97;;;18.84;100.00
47104;BME280;32853;52.164;5.400;2022-09-09T13:51:51;100527.50;;;18.62;100.00
47104;BME280;32853;52.164;5.400;2022-09-09T13:54:27;100543.09;;;18.78;100.00
47104;BME280;32853;52.164;5.400;2022-09-09T13:56:54;100576.81;;;18.98;100.00
47104;BME280;32853;52.164;5.400;2022-09-09T13:59:20;100547.78;;;18.85;100.00
47104;BME280;32853;52.164;5.400;2022-09-09T14:01:47;100472.84;;;18.39;100.00
47104;BME280;32853;52.164;5.400;2022-09-09T14:04:17;100516.84;;;18.75;100.00
47104;BME280;32853;52.164;5.400;2022-09-09T14:06:49;100565.59;;;18.95;100.00
47104;BME280;32853;52.164;5.400;2022-09-09T14:09:17;100482.59;;;18.38;100.00
47104;BME280;32853;52.164;5.400;2022-09-09T14:11:44;100521.41;;;18.73;100.00
47104;BME280;32853;52.164;5.400;2022-09-09T14:14:14;100591.03;;;19.20;100.00
47104;BME280;32853;52.164;5.400;2022-09-09T14:16:40;100473.59;;;18.63;100.00
47104;BME280;32853;52.164;5.400;2022-09-09T14:19:08;100577.38;;;19.24;100.00
47104;BME280;32853;52.164;5.400;2022-09-09T14:21:33;100578.47;;;19.22;100.00
47104;BME280;32853;52.164;5.400;2022-09-09T14:24:03;100569.94;;;19.18;100.00
47104;BME280;32853;52.164;5.400;2022-09-09T14:26:28;100551.63;;;19.04;100.00
47104;BME280;32853;52.164;5.400;2022-09-09T14:29:12;100574.84;;;19.23;100.00
47104;BME280;32853;52.164;5.400;2022-09-09T14:31:38;100496.97;;;18.80;100.00
47104;BME280;32853;52.164;5.400;2022-09-09T14:34:04;100586.31;;;19.23;100.00
47104;BME280;32853;52.164;5.400;2022-09-09T14:36:31;100540.91;;;18.94;100.00
47104;BME280;32853;52.164;5.400;2022-09-09T14:38:56;100559.22;;;19.08;100.00
47104;BME280;32853;52.164;5.400;2022-09-09T14:41:22;100520.56;;;18.72;100.00
47104;BME280;32853;52.164;5.400;2022-09-09T14:43:48;100464.69;;;18.42;100.00
47104;BME280;32853;52.164;5.400;2022-09-09T14:46:16;100412.09;;;18.04;100.00
47104;BME280;32853;52.164;5.400;2022-09-09T14:48:42;100503.50;;;18.65;100.00
47104;BME280;32853;52.164;5.400;2022-09-09T14:51:15;100562.72;;;18.98;100.00
47104;BME280;32853;52.164;5.400;2022-09-09T14:53:42;100411.94;;;17.94;100.00
47104;BME280;32853;52.164;5.400;2022-09-09T14:56:16;100519.38;;;18.65;100.00
47104;BME280;32853;52.164;5.400;2022-09-09T14:58:45;100473.59;;;18.29;100.00
47104;BME280;32853;52.164;5.400;2022-09-09T15:01:24;100418.44;;;17.90;100.00
47104;BME280;32853;52.164;5.400;2022-09-09T15:03:55;100564.03;;;18.92;100.00
47104;BME280;32853;52.164;5.400;2022-09-09T15:06:22;100556.31;;;19.11;100.00
47104;BME280;32853;52.164;5.400;2022-09-09T15:08:53;100503.31;;;19.00;100.00
47104;BME280;32853;52.164;5.400;2022-09-09T15:11:34;100520.63;;;19.15;100.00
47104;BME280;32853;52.164;5.400;2022-09-09T15:14:08;100568.53;;;19.46;100.00
47104;BME280;32853;52.164;5.400;2022-09-09T15:16:34;100487.31;;;18.91;100.00